logo tempoitalia

Diretta Meteo Gordon, Stati Uniti (USA)lunedì 31 agosto ore 00:35

Mappa
Sereno 12 °C Sereno 24 Ore: T.min 12 T.max 33
Ponente Nord Km/h 0 Punto di rugiada: 9 °C Umidità: 81% Visibilità: 10 Km
Il sole sorge alle: 06:12 Il sole tramonta alle: 19:25
31 Agosto 2026 00:35 tempo osservato: Sereno Sereno 12 81 1017 vento: Nord N 0
31 Agosto 2026 00:15 tempo osservato: Sereno Sereno 12 87 1017 vento: Nord N 0
30 Agosto 2026 23:55 tempo osservato: Sereno Sereno 13 81 1016 vento: Nord N 0
30 Agosto 2026 23:35 tempo osservato: Sereno Sereno 13 81 1016 vento: Nord N 0
30 Agosto 2026 23:15 tempo osservato: Sereno Sereno 13 81 1016 vento: Nord N 0
30 Agosto 2026 22:55 tempo osservato: Sereno Sereno 15 72 1016 vento: Nord N 0
30 Agosto 2026 22:35 tempo osservato: Sereno Sereno 16 67 1016 vento: Nord N 7.4
30 Agosto 2026 22:15 tempo osservato: Sereno Sereno 16 67 1016 vento: Nord N 0
30 Agosto 2026 21:55 tempo osservato: Sereno Sereno 16 67 1016 vento: Nord N 5.5
30 Agosto 2026 21:35 tempo osservato: Sereno Sereno 17 63 1015 vento: Nord N/NE 9.3
30 Agosto 2026 21:15 tempo osservato: Sereno Sereno 17 63 1015 vento: Nord N 14.8
30 Agosto 2026 20:55 tempo osservato: Sereno Sereno 18 59 1015 vento: Nord N 22.2
30 Agosto 2026 20:35 tempo osservato: Sereno Sereno 19 55 1014 vento: Nord N 20.3
30 Agosto 2026 20:15 tempo osservato: Sereno Sereno 24 38 1014 vento: Nord N 31.5
30 Agosto 2026 19:55 tempo osservato: Sereno Sereno 26 34 1012 vento: Nord O 18.5
30 Agosto 2026 19:35 tempo osservato: Sereno Sereno 26 36 1012 vento: Nord O/SO 14.8
30 Agosto 2026 19:15 tempo osservato: Sereno Sereno 27 34 1011 vento: Nord O/SO 13
30 Agosto 2026 18:55 tempo osservato: Sereno Sereno 28 32 1011 vento: Nord O/SO 13
30 Agosto 2026 18:35 tempo osservato: Sereno Sereno 29 30 1011 vento: Nord O/SO 14.8
30 Agosto 2026 18:15 tempo osservato: Sereno Sereno 28 30 1011 vento: Nord O/SO 16.7
30 Agosto 2026 17:55 tempo osservato: Sereno Sereno 29 28 1011 vento: Nord O/SO 18.5
30 Agosto 2026 17:35 tempo osservato: Sereno Sereno 31 25 1011 vento: Nord O/SO 24
30 Agosto 2026 17:15 tempo osservato: Sereno Sereno 30 27 1011 vento: Nord O/SO 22.2
30 Agosto 2026 16:55 tempo osservato: Sereno Sereno 31 23 1011 vento: Nord O 29.6
30 Agosto 2026 16:35 tempo osservato: Sereno Sereno 32 24 1011 vento: Nord O/SO 24
30 Agosto 2026 16:15 tempo osservato: Sereno Sereno 31 23 1011 vento: Nord O 20.3
30 Agosto 2026 15:55 tempo osservato: Sereno Sereno 31 23 1011 vento: Nord O 27.8
30 Agosto 2026 15:35 tempo osservato: Sereno Sereno 32 24 1011 vento: Nord O 18.5
30 Agosto 2026 15:15 tempo osservato: Sereno Sereno 33 22 1011 vento: Nord O 27.8
30 Agosto 2026 14:55 tempo osservato: Sereno Sereno 32 24 1011 vento: Nord O 20.3
30 Agosto 2026 14:35 tempo osservato: Sereno Sereno 33 21 1011 vento: Nord O 27.8
30 Agosto 2026 14:15 tempo osservato: Sereno Sereno 32 25 1011 vento: Nord O 20.3
30 Agosto 2026 13:55 tempo osservato: Sereno Sereno 32 25 1011 vento: Nord O/SO 20.3
30 Agosto 2026 13:35 tempo osservato: Sereno Sereno 32 27 1011 vento: Nord O/SO 25.9
30 Agosto 2026 13:15 tempo osservato: Sereno Sereno 31 29 1011 vento: Nord O 22.2
30 Agosto 2026 12:55 tempo osservato: Sereno Sereno 31 27 1011 vento: Nord O 20.3
30 Agosto 2026 12:35 tempo osservato: Sereno Sereno 30 30 1011 vento: Nord O 18.5
30 Agosto 2026 12:15 tempo osservato: Sereno Sereno 30 30 1012 vento: Nord O 20.3
30 Agosto 2026 11:55 tempo osservato: Sereno Sereno 30 30 1012 vento: Nord O 27.8
30 Agosto 2026 11:35 tempo osservato: Sereno Sereno 30 33 1012 vento: Nord O 25.9
30 Agosto 2026 11:15 tempo osservato: Sereno Sereno 28 34 1012 vento: Nord O 22.2
30 Agosto 2026 10:55 tempo osservato: Sereno Sereno 28 37 1012 vento: Nord O 25.9
30 Agosto 2026 10:35 tempo osservato: Sereno Sereno 27 39 1013 vento: Nord O 27.8
30 Agosto 2026 10:15 tempo osservato: Sereno Sereno 26 41 1013 vento: Nord O/SO 20.3
30 Agosto 2026 09:55 tempo osservato: Sereno Sereno 26 41 1013 vento: Nord O/SO 25.9
30 Agosto 2026 09:35 tempo osservato: Sereno Sereno 24 50 1013 vento: Nord O/SO 18.5
30 Agosto 2026 09:15 tempo osservato: Sereno Sereno 22 56 1013 vento: Nord O/SO 22.2
30 Agosto 2026 08:55 tempo osservato: Sereno Sereno 21 60 1012 vento: Nord O/SO 16.7
30 Agosto 2026 08:35 tempo osservato: Sereno Sereno 21 60 1012 vento: Nord O/SO 16.7
30 Agosto 2026 08:15 tempo osservato: Sereno Sereno 20 64 1012 vento: Nord O/SO 13
30 Agosto 2026 07:55 tempo osservato: Sereno Sereno 19 63 1012 vento: Nord O/SO 16.7
30 Agosto 2026 07:35 tempo osservato: Sereno Sereno 18 67 1012 vento: Nord O/SO 14.8
30 Agosto 2026 07:15 tempo osservato: Sereno Sereno 17 72 1013 vento: Nord O/SO 14.8
30 Agosto 2026 06:55 tempo osservato: Sereno Sereno 17 72 1013 vento: Nord O/SO 11.1
30 Agosto 2026 06:35 tempo osservato: Sereno Sereno 16 77 1013 vento: Nord O/SO 13
30 Agosto 2026 06:15 tempo osservato: Sereno Sereno 16 77 1013 vento: Nord O/SO 14.8
30 Agosto 2026 05:55 tempo osservato: Sereno Sereno 16 77 1012 vento: Nord O/SO 13
30 Agosto 2026 05:35 tempo osservato: Sereno Sereno 16 77 1012 vento: Nord SO 11.1
30 Agosto 2026 05:15 tempo osservato: Sereno Sereno 17 72 1012 vento: Nord O/SO 13
30 Agosto 2026 04:55 tempo osservato: Sereno Sereno 17 72 1012 vento: Nord O/SO 13
30 Agosto 2026 04:35 tempo osservato: Sereno Sereno 17 72 1012 vento: Nord O/SO 14.8
30 Agosto 2026 04:15 tempo osservato: Sereno Sereno 17 77 1012 vento: Nord SO 14.8
30 Agosto 2026 03:55 tempo osservato: Sereno Sereno 16 82 1012 vento: Nord O/SO 11.1
30 Agosto 2026 03:35 tempo osservato: Sereno Sereno 17 77 1012 vento: Nord SO 16.7
30 Agosto 2026 03:15 tempo osservato: Sereno Sereno 17 82 1012 vento: Nord SO 16.7
30 Agosto 2026 02:55 tempo osservato: Sereno Sereno 17 82 1012 vento: Nord SO 14.8
30 Agosto 2026 02:35 tempo osservato: Sereno Sereno 16 87 1011 vento: Nord O/SO 7.4
30 Agosto 2026 02:15 tempo osservato: Sereno Sereno 17 82 1012 vento: Nord SO 9.3
30 Agosto 2026 01:55 tempo osservato: Sereno Sereno 17 82 1012 vento: Nord SO 7.4
30 Agosto 2026 01:35 tempo osservato: Sereno Sereno 17 82 1012 vento: Nord N 0
30 Agosto 2026 01:15 tempo osservato: Sereno Sereno 17 88 1012 vento: Nord S 9.3
30 Agosto 2026 00:55 tempo osservato: Sereno Sereno 17 82 1012 vento: Nord N 5.5
30 Agosto 2026 00:35 tempo osservato: Sereno Sereno 17 88 1012 vento: Nord N 0